Terminal Aerodrome Forecast
Issued by NWS Grand Forks, ND

Home | Current Version | Previous Version | Text Only | Print | Product List | Glossary On
Versions: 1 2 3 4 5 6 7 8 9 10 11 12 13
678
FTUS43 KFGF 281136
TAFGFK
TAF
KGFK 281136Z 2812/0112 35012KT P6SM BKN040
     FM010100 36006KT P6SM BKN025
     FM011000 34005KT P6SM BKN015=

USA.gov is the U.S. government's official web portal to all federal, state and local government web resources and services.